Forecasts are only available for sites displaying the forecast symbol.

Scroll for more >

River gauges, storages, and weirs in the Murray–Darling Basin

Type Locationsort descending River Water level Flow Volume Release Water temp Salinity Rainfall
River Gauge Albury (Union Bridge) Murray 2.17 m 21/10/2018 9:30 Not measured Not measured Not measured 13.4°C 21/10/2018 9:30 41.6 μS/cm 21/10/2018 9:30 Not measured Full data
River Gauge Balranald Murrumbidgee 1.57 m 21/10/2018 8:45 1074 ML/Day 21/10/2018 8:45 Not measured Not measured 19.7°C 21/10/2018 8:45 111.5 μS/cm 21/10/2018 8:45 Not measured Full data
River Gauge Bandiana Kiewa 1.88 m 21/10/2018 8:45 1802 ML/Day 21/10/2018 8:45 Not measured Not measured 12.8°C 21/10/2018 8:45 17.2 μS/cm 21/10/2018 8:45 Not measured Full data
River Gauge Barmah Choke Murray 3.1 m 21/10/2018 8:45 10048 ML/Day 21/10/2018 8:45 Not measured Not measured Not measured Not measured Not measured Full data
River Gauge Biggara Murray 0.65 m 21/10/2018 9:30 1009 ML/Day 21/10/2018 9:30 Not measured Not measured 13.1°C 21/10/2018 9:30 41.1 μS/cm 21/10/2018 9:30 1.4 mm 21/10/2018 9:00 Full data
River Gauge Bringenbrong Bridge Murray 1.28 m 21/10/2018 9:30 2451 ML/Day 21/10/2018 9:30 Not measured Not measured Not measured Not measured Not measured Full data
River Gauge Burtundy Darling 0.61 m 21/10/2018 9:15 17 ML/Day 24/09/2018 14:45 Not measured Not measured 17.8°C 21/10/2018 9:15 725.2 μS/cm 21/10/2018 9:15 Not measured Full data
River Gauge Colemans Mitta 2.75 m 21/10/2018 10:00 9291 ML/Day 21/10/2018 10:00 Not measured Not measured 9.6°C 21/10/2018 8:45 43.2 μS/cm 21/10/2018 8:45 Not measured Full data
River Gauge Colignan Murray 3.09 m 21/10/2018 8:45 15062 ML/Day 21/10/2018 8:45 Not measured Not measured 19.0°C 21/10/2018 8:45 68.4 μS/cm 21/10/2018 8:45 Not measured Full data
River Gauge Corowa Murray 3.2 m 21/10/2018 9:30 15582 ML/Day 21/10/2018 9:30 Not measured Not measured 15.6°C 21/10/2018 9:30 42.3 μS/cm 21/10/2018 9:30 Not measured Full data
Storage Dartmouth Dam Mitta 474.88 m 21/10/2018 10:00 Not measured 3169 GL 21/10/2018 10:00 Not measured Not measured Not measured Not measured Full data
River Gauge Doctors Point Murray 3.13 m 21/10/2018 9:30 16726 ML/Day 21/10/2018 9:30 Not measured Not measured 13.9°C 21/10/2018 9:30 56.6 μS/cm 21/10/2018 9:30 Not measured Full data
River Gauge Echuca Wharf Murray 88.22 m 21/10/2018 7:45 Not measured Not measured Not measured Not measured Not measured Not measured Full data
River Gauge Edward Escape Wakool 0.64 m 21/10/2018 8:45 484 ML/Day 21/10/2018 8:45 Not measured Not measured 18.6°C 21/10/2018 8:45 57.6 μS/cm 21/10/2018 8:45 Not measured Full data
River Gauge Edward River Offtake Murray 2.39 m 21/10/2018 9:15 1552 ML/Day 21/10/2018 9:15 Not measured Not measured 18.6°C 21/10/2018 8:45 33.9 μS/cm 21/10/2018 8:45 Not measured Full data
Weirs Euston Weir Downstream Murray 44.57 m 21/10/2018 8:45 15918 ML/Day 21/10/2018 8:45 Not measured Not measured 19.1°C 21/10/2018 8:45 68.8 μS/cm 21/10/2018 8:45 Not measured Full data
Weirs Euston Weir Upstream Murray 47.61 m 21/10/2018 8:45 Not measured 37 GL 21/10/2018 7:45 Not measured Not measured Not measured 0.0 mm 18/10/2018 9:00 Full data
River Gauge Flow to South Australia Murray Not measured Not measured Not measured 7188.9 ML/d19/10/2018 7:45 Not measured Not measured Not measured Full data
River Gauge Frenchman Creek Murray 27.24 m 19/10/2018 7:45 Not measured Not measured 8193.2 ML/d19/10/2018 7:45 Not measured Not measured Not measured Full data
River Gauge Gulpa Creek Offtake Murray 2.48 m 21/10/2018 8:45 330 ML/Day 21/10/2018 8:45 Not measured Not measured Not measured Not measured Not measured Full data
River Gauge Hinnomunjie Mitta 1.17 m 21/10/2018 8:45 1995 ML/Day 21/10/2018 8:45 Not measured Not measured 9.6°C 21/10/2018 8:45 24.3 μS/cm 21/10/2018 8:45 11.8 mm 21/10/2018 9:00 Full data
Storage Hume Dam Murray 182.97 m 21/10/2018 9:30 Not measured 1500 GL 21/10/2018 9:30 15079.0 ML/d21/10/2018 8:45 Not measured Not measured 1.2 mm 21/10/2018 9:00 Full data
River Gauge Jingellic Murray 1.5 m 21/10/2018 8:45 3036 ML/Day 21/10/2018 8:45 Not measured Not measured 16.3°C 21/10/2018 8:45 32.3 μS/cm 21/10/2018 8:45 1.0 mm 21/10/2018 9:00 Full data
River Gauge Kerang Loddon 0.52 m 21/10/2018 8:45 571 ML/Day 21/10/2018 8:45 Not measured Not measured 17.8°C 21/10/2018 8:45 83.7 μS/cm 21/10/2018 8:45 Not measured Full data
River Gauge Lake Albert Murray 0.81 m 21/10/2018 5:45 Not measured 280 GL 21/10/2018 5:45 Not measured Not measured Not measured Not measured Full data
River Gauge Lake Alexandrina Murray 0.73 m 21/10/2018 5:45 Not measured 1598 GL 21/10/2018 5:45 Not measured Not measured 887.8 μS/cm 21/10/2018 8:45 Not measured Full data
Storage Lake Victoria Murray 24.64 m 21/10/2018 8:45 Not measured 410 GL 21/10/2018 8:45 Not measured 17.3°C 21/10/2018 8:45 175.8 μS/cm 21/10/2018 8:45 Not measured Full data
Weirs Lock 1 Downstream Murray 0.77 m 21/10/2018 8:45 Not measured Not measured 5275.4 ML/d19/10/2018 7:45 Not measured Not measured Not measured Full data
Weirs Lock 1 Upstream Murray 3.17 m 21/10/2018 8:45 Not measured Not measured Not measured 18.3°C 21/10/2018 8:45 364.6 μS/cm 21/10/2018 8:45 Not measured Full data
Weirs Lock 2 Downstream Murray 3.41 m 21/10/2018 8:45 Not measured Not measured Not measured Not measured Not measured Not measured Full data
Weirs Lock 2 Upstream Murray 6.27 m 21/10/2018 8:45 Not measured Not measured Not measured 18.8°C 21/10/2018 8:45 341.5 μS/cm 21/10/2018 8:45 Not measured Full data
Weirs Lock 3 Downstream Murray 6.51 m 21/10/2018 8:45 Not measured Not measured Not measured Not measured Not measured Not measured Full data
Weirs Lock 3 Upstream Murray 9.81 m 21/10/2018 8:45 Not measured Not measured Not measured Not measured Not measured Not measured Full data
Weirs Lock 4 Downstream Murray 10.61 m 21/10/2018 8:45 Not measured Not measured Not measured Not measured Not measured Not measured Full data
Weirs Lock 4 Upstream Murray 13.2 m 21/10/2018 8:45 Not measured Not measured Not measured Not measured Not measured Not measured Full data
Weirs Lock 5 Downstream Murray 13.42 m 21/10/2018 8:45 Not measured Not measured Not measured Not measured Not measured Not measured Full data
Weirs Lock 5 Upstream Murray 16.53 m 21/10/2018 8:45 Not measured Not measured Not measured 19.2°C 21/10/2018 8:45 213.8 μS/cm 21/10/2018 8:45 Not measured Full data
Weirs Lock 6 Downstream Murray 16.63 m 21/10/2018 8:45 Not measured Not measured Not measured Not measured Not measured Not measured Full data
Weirs Lock 6 Upstream Murray 19.48 m 21/10/2018 8:45 Not measured Not measured Not measured 19.4°C 21/10/2018 8:45 189.5 μS/cm 21/10/2018 8:45 Not measured Full data
Weirs Lock 7 Downstream Murray 20.7 m 21/10/2018 8:45 Not measured Not measured Not measured Not measured Not measured Not measured Full data
Weirs Lock 7 Upstream Murray 22.39 m 21/10/2018 8:45 Not measured Not measured Not measured 19.6°C 21/10/2018 8:45 109.6 μS/cm 21/10/2018 8:45 Not measured Full data
Weirs Lock 8 Upstream Murray 24.1 m 21/10/2018 8:45 Not measured Not measured Not measured 19.9°C 21/10/2018 8:45 95.2 μS/cm 21/10/2018 8:45 Not measured Full data
Weirs Lock 9 Downstream Murray 24.25 m 21/10/2018 8:45 Not measured Not measured Not measured Not measured Not measured Not measured Full data
Weirs Lock 9 Upstream Murray 27.36 m 21/10/2018 8:45 Not measured Not measured Not measured 20.1°C 21/10/2018 8:45 102.8 μS/cm 21/10/2018 8:45 Not measured Full data
River Gauge McCoy Bridge Goulburn 3.34 m 21/10/2018 8:45 4554 ML/Day 21/10/2018 8:45 Not measured Not measured 16.7°C 21/10/2018 8:45 51.9 μS/cm 21/10/2018 8:45 Not measured Full data
Storage Menindee Lakes Darling Not measured Not measured 142 GL 19/10/2018 7:45 Not measured Not measured Not measured Not measured Full data
Weirs Mildura Weir downstream Murray 31.41 m 21/10/2018 8:45 Not measured Not measured Not measured 20.2°C 21/10/2018 8:45 111.0 μS/cm 21/10/2018 8:45 Not measured Full data
River Gauge Morgan Downstream Murray Not measured Not measured Not measured 5012.8 ML/d21/10/2018 8:45 Not measured 340.6 μS/cm 21/10/2018 6:45 Not measured Full data
River Gauge Mulwala Canal Murray Not measured Not measured Not measured 1453.7 ML/d19/10/2018 7:45 Not measured Not measured Not measured Full data
River Gauge Mundoo Barrage Murray 0.94 m 19/10/2018 7:45 Not measured Not measured Not measured Not measured Not measured Not measured Full data
River Gauge Murray Bridge Murray 0.7 m 21/10/2018 8:45 Not measured Not measured Not measured 16.8°C 21/10/2018 8:45 308.8 μS/cm 21/10/2018 8:45 Not measured Full data
River Gauge Peechelba Ovens 127.1 m 21/10/2018 8:45 1415 ML/Day 21/10/2018 8:45 Not measured Not measured 17.8°C 21/10/2018 8:45 47.6 μS/cm 21/10/2018 8:45 Not measured Full data
River Gauge Pinegrove Murray 1.25 m 21/10/2018 9:30 391 ML/Day 21/10/2018 9:30 Not measured Not measured 14.4°C 21/10/2018 9:30 109.0 μS/cm 21/10/2018 9:30 3.0 mm 21/10/2018 9:00 Full data
River Gauge Redcliffs Murray Not measured Not measured Not measured Not measured Not measured 116.6 μS/cm 21/10/2018 7:45 Not measured Full data
River Gauge Rochester Campaspe 1.87 m 21/10/2018 8:45 189 ML/Day 21/10/2018 8:45 Not measured Not measured 18.1°C 21/10/2018 8:45 699.2 μS/cm 21/10/2018 8:45 3.4 mm 21/10/2018 9:00 Full data
River Gauge Rufus River Murray 20.58 m 19/10/2018 7:45 Not measured Not measured 1845.9 ML/d19/10/2018 7:45 Not measured 170.3 μS/cm 21/10/2018 6:45 Not measured Full data
Weirs Steven's Weir Downstream Wakool 2.6 m 21/10/2018 8:45 3012 ML/Day 21/10/2018 8:45 Not measured Not measured 18.9°C 21/10/2018 8:45 37.9 μS/cm 21/10/2018 8:45 Not measured Full data
Weirs Steven's Weir Upstream Wakool 4.45 m 21/10/2018 9:15 Not measured Not measured Not measured Not measured Not measured Not measured Full data
River Gauge Stoney Crossing Murray 1.76 m 21/10/2018 8:45 1442 ML/Day 21/10/2018 8:45 Not measured 995.9 ML/d21/10/2018 7:45 19.7°C 21/10/2018 8:45 184.0 μS/cm 21/10/2018 8:45 Not measured Full data
River Gauge Swan Hill Murray 2.65 m 21/10/2018 8:45 15577 ML/Day 21/10/2018 8:45 Not measured Not measured 18.5°C 21/10/2018 8:45 55.6 μS/cm 21/10/2018 8:45 Not measured Full data
River Gauge Tallandoon Mitta 3.35 m 21/10/2018 8:45 9499 ML/Day 21/10/2018 8:45 Not measured Not measured 10.1°C 21/10/2018 8:45 41.1 μS/cm 21/10/2018 8:45 Not measured Full data
River Gauge Tauwitchere Barrage Murray 0.77 m 21/10/2018 8:45 Not measured Not measured Not measured Not measured Not measured Not measured Full data
River Gauge Tocumwal Murray 2.86 m 21/10/2018 8:45 13993 ML/Day 21/10/2018 8:45 Not measured Not measured 17.8°C 21/10/2018 8:45 44.8 μS/cm 21/10/2018 8:45 Not measured Full data
River Gauge Torrumbarry Headworks Murray 84.76 m 21/10/2018 8:45 Not measured Not measured 1590.8 ML/d21/10/2018 8:45 Not measured Not measured Not measured Full data
Weirs Torrumbarry Weir Downstream Murray 4.28 m 21/10/2018 8:45 14675 ML/Day 21/10/2018 8:45 Not measured Not measured 20.3°C 21/10/2018 8:45 43.8 μS/cm 21/10/2018 8:45 Not measured Full data
Weirs Torrumbarry Weir Upstream Murray 86.05 m 21/10/2018 9:00 Not measured 37 GL 21/10/2018 7:45 Not measured 20.6°C 20/10/2018 7:45 43.9 μS/cm 21/10/2018 6:45 0.0 mm 19/10/2018 9:00 Full data
River Gauge Wakool Canal Wakool 0.46 m 21/10/2018 8:45 Not measured Not measured 37.1 ML/d21/10/2018 8:45 Not measured Not measured Not measured Full data
River Gauge Wakool Junction Murray 4.87 m 21/10/2018 8:45 16714 ML/Day 21/10/2018 8:45 Not measured Not measured 18.8°C 21/10/2018 8:45 59.8 μS/cm 21/10/2018 8:45 Not measured Full data
River Gauge Weir 32 Upstream Darling 1.34 m 21/10/2018 8:45 207 ML/Day 21/10/2018 8:45 Not measured Not measured 20.2°C 21/10/2018 8:45 861.1 μS/cm 21/10/2018 8:45 Not measured Full data
Weirs Wentworth Weir Murray 28.06 m 21/10/2018 8:45 Not measured Not measured 13601.0 ML/d21/10/2018 8:00 Not measured 105.0 μS/cm 19/10/2018 7:45 0.0 mm 18/10/2018 9:00 Full data
River Gauge Wilcania Darling -0.21 m 21/10/2018 8:45 1 ML/Day 21/10/2018 8:45 Not measured Not measured 23.7°C 21/10/2018 9:00 0.0 μS/cm 21/10/2018 8:45 Not measured Full data
River Gauge Yarrawonga Main Channel Murray 123.4 m 21/10/2018 8:45 Not measured Not measured 405.5 ML/d21/10/2018 8:45 Not measured Not measured Not measured Full data
Weirs Yarrawonga Weir Downstream Murray 2.25 m 21/10/2018 9:00 14880 ML/Day 21/10/2018 9:00 Not measured Not measured 17.9°C 21/10/2018 9:00 52.7 μS/cm 21/10/2018 9:00 Not measured Full data
Weirs Yarrawonga Weir Upstream Murray 124.68 m 21/10/2018 9:00 Not measured Not measured Not measured Not measured Not measured 2.4 mm 21/10/2018 9:00 Full data